Time;durP1;ratioP1;P1;durP2;ratioP2;P2;SDS_P1;SDS_P2;PMS_P1;PMS_P2;Temp;Humidity;BMP_temperature;BMP_pressure;BME280_temperature;BME280_humidity;BME280_pressure;Samples;Min_cycle;Max_cycle;Signal;HPM_P1;HPM_P2
2022/03/19 00:02:21;;;;;;;107.32;54.08;;;3.70;88.10;;;;;;5084705;28;20020;-71
2022/03/19 00:04:48;;;;;;;93.70;50.75;;;3.70;88.30;;;;;;5087725;28;20384;-70
2022/03/19 00:07:14;;;;;;;97.63;50.70;;;3.60;88.10;;;;;;5090417;28;20301;-71
2022/03/19 00:09:40;;;;;;;107.07;55.50;;;3.60;88.40;;;;;;5080127;28;20111;-70
2022/03/19 00:12:08;;;;;;;100.80;52.38;;;3.60;88.70;;;;;;5093112;28;20081;-70
2022/03/19 00:14:33;;;;;;;101.32;50.45;;;3.60;88.60;;;;;;5082741;28;20024;-71
2022/03/19 00:16:59;;;;;;;94.18;49.75;;;3.60;88.40;;;;;;5084159;28;20495;-69
2022/03/19 00:19:25;;;;;;;103.70;52.10;;;3.60;88.50;;;;;;5089038;28;20058;-70
2022/03/19 00:21:51;;;;;;;92.97;50.72;;;3.50;88.50;;;;;;5077560;28;20028;-71
2022/03/19 00:24:16;;;;;;;99.72;49.88;;;3.40;88.50;;;;;;5089084;28;20035;-71
2022/03/19 00:26:42;;;;;;;99.32;51.83;;;3.40;88.60;;;;;;5082957;28;20028;-69
2022/03/19 00:29:08;;;;;;;93.43;49.67;;;3.40;88.60;;;;;;5080516;28;20025;-71
2022/03/19 00:31:34;;;;;;;87.45;47.22;;;3.30;88.50;;;;;;5089127;28;20505;-71
2022/03/19 00:33:59;;;;;;;85.72;45.65;;;3.20;88.30;;;;;;5077516;28;20036;-71
2022/03/19 00:36:25;;;;;;;86.93;46.20;;;3.20;88.30;;;;;;5087382;28;20029;-71
2022/03/19 00:38:51;;;;;;;83.88;45.13;;;3.10;88.40;;;;;;5083497;28;20027;-71
2022/03/19 00:41:16;;;;;;;87.15;46.40;;;3.10;88.60;;;;;;5079859;28;20059;-71
2022/03/19 00:43:43;;;;;;;95.00;47.85;;;3.10;88.60;;;;;;5090113;28;20477;-71
2022/03/19 00:46:09;;;;;;;89.57;46.50;;;3.10;88.90;;;;;;5077579;28;20044;-71
2022/03/19 00:48:34;;;;;;;102.07;48.88;;;3.10;89.10;;;;;;5086087;28;20032;-72
2022/03/19 00:51:00;;;;;;;92.15;48.70;;;3.10;89.20;;;;;;5085160;28;20058;-71
2022/03/19 00:53:25;;;;;;;88.72;48.30;;;3.10;89.00;;;;;;5078779;28;20020;-71
2022/03/19 00:55:51;;;;;;;103.30;48.97;;;3.10;89.10;;;;;;5089814;28;20028;-71
2022/03/19 00:58:16;;;;;;;94.15;45.95;;;3.20;89.30;;;;;;5078191;28;20028;-71
2022/03/19 01:00:42;;;;;;;93.80;47.88;;;3.20;89.40;;;;;;5084322;28;20055;-70
2022/03/19 01:03:08;;;;;;;90.38;44.05;;;3.30;89.40;;;;;;5084273;28;20478;-71
2022/03/19 01:05:34;;;;;;;85.95;43.20;;;3.30;89.10;;;;;;5076086;28;20074;-71
2022/03/19 01:07:59;;;;;;;86.80;44.80;;;3.30;89.00;;;;;;5089428;28;20376;-71
2022/03/19 01:10:28;;;;;;;88.78;42.30;;;3.40;89.20;;;;;;5079414;28;20061;-71
2022/03/19 01:12:55;;;;;;;85.72;44.15;;;3.40;89.00;;;;;;5081150;28;20116;-71
2022/03/19 01:15:22;;;;;;;81.75;42.03;;;3.40;88.80;;;;;;5087173;28;20431;-71
2022/03/19 01:17:48;;;;;;;85.93;45.53;;;3.40;88.90;;;;;;5074670;28;20020;-71
2022/03/19 01:20:15;;;;;;;83.45;44.58;;;3.50;89.00;;;;;;5086693;28;20020;-71
2022/03/19 01:22:42;;;;;;;85.38;44.28;;;3.60;89.00;;;;;;5081747;28;20032;-71
2022/03/19 01:25:09;;;;;;;84.63;44.78;;;3.60;88.80;;;;;;5080453;28;20441;-72
2022/03/19 01:27:36;;;;;;;78.35;41.33;;;3.60;88.50;;;;;;5088751;28;20027;-70
2022/03/19 01:30:06;;;;;;;78.68;42.15;;;3.60;87.90;;;;;;5075872;28;20019;-71
2022/03/19 01:32:32;;;;;;;81.50;44.75;;;3.60;87.80;;;;;;5085603;28;20087;-72
2022/03/19 01:34:58;;;;;;;87.32;44.25;;;3.50;87.70;;;;;;5083075;28;20047;-71
2022/03/19 01:37:24;;;;;;;74.38;41.25;;;3.50;87.80;;;;;;5077252;28;20056;-71
2022/03/19 01:39:53;;;;;;;80.53;41.83;;;3.50;87.90;;;;;;5088978;28;20024;-71
2022/03/19 01:42:30;;;;;;;73.97;38.22;;;3.40;88.00;;;;;;5082177;22;20198;-78
2022/03/19 01:44:57;;;;;;;78.45;40.97;;;3.40;87.90;;;;;;5053957;28;20053;-77
2022/03/19 01:47:24;;;;;;;71.88;40.10;;;3.40;88.20;;;;;;5066890;28;20027;-78
2022/03/19 01:49:53;;;;;;;69.32;39.00;;;3.40;88.30;;;;;;5072828;28;20013;-78
2022/03/19 01:52:18;;;;;;;76.40;40.38;;;3.40;88.10;;;;;;5081139;28;20021;-80
2022/03/19 01:54:47;;;;;;;76.68;40.00;;;3.40;88.20;;;;;;5077657;28;20522;-77
2022/03/19 01:57:17;;;;;;;75.07;38.05;;;3.40;88.00;;;;;;5075079;28;20090;-78
2022/03/19 01:59:43;;;;;;;75.63;39.65;;;3.40;88.10;;;;;;5076172;28;20535;-78
2022/03/19 02:02:11;;;;;;;71.00;39.10;;;3.30;88.40;;;;;;5073723;28;20020;-77
2022/03/19 02:04:38;;;;;;;73.07;38.22;;;3.40;88.80;;;;;;5073524;28;20135;-76
2022/03/19 02:07:07;;;;;;;70.53;37.92;;;3.50;88.80;;;;;;5071689;28;20021;-75
2022/03/19 02:09:33;;;;;;;66.13;36.72;;;3.70;88.80;;;;;;5072420;28;20028;-76
2022/03/19 02:11:59;;;;;;;64.22;36.28;;;3.80;88.20;;;;;;5072355;28;20036;-76
2022/03/19 02:14:25;;;;;;;58.90;33.95;;;3.90;88.00;;;;;;5072554;28;20033;-76
2022/03/19 02:16:51;;;;;;;70.07;33.95;;;3.90;87.80;;;;;;5072418;28;20031;-76
2022/03/19 02:19:17;;;;;;;69.22;34.75;;;4.00;87.80;;;;;;5071155;28;20020;-76
2022/03/19 02:21:45;;;;;;;61.80;33.85;;;4.10;87.50;;;;;;5072180;28;20032;-77
2022/03/19 02:26:56;;;;;;;60.95;33.20;;;4.30;87.30;;;;;;5072229;28;20126;-78
2022/03/19 02:29:22;;;;;;;63.13;31.60;;;4.30;86.90;;;;;;5072473;28;20049;-78
2022/03/19 02:31:50;;;;;;;57.17;30.30;;;4.40;86.60;;;;;;5072454;28;20411;-77
2022/03/19 02:34:16;;;;;;;59.53;29.95;;;4.40;86.40;;;;;;5071953;28;20082;-77
2022/03/19 02:36:42;;;;;;;51.15;28.15;;;4.50;86.30;;;;;;5071977;28;20032;-77
2022/03/19 02:39:12;;;;;;;59.08;30.67;;;4.50;86.00;;;;;;5070230;28;20116;-76
2022/03/19 02:41:46;;;;;;;57.35;30.45;;;4.50;85.90;;;;;;5071830;28;20111;-75
2022/03/19 02:44:12;;;;;;;57.33;29.45;;;4.60;85.90;;;;;;5055170;28;20541;-77
2022/03/19 02:46:46;;;;;;;52.55;28.23;;;4.60;85.50;;;;;;5072257;28;20035;-77
2022/03/19 02:49:12;;;;;;;51.45;26.83;;;4.70;85.20;;;;;;5072351;28;20020;-78
2022/03/19 02:51:41;;;;;;;43.67;24.23;;;4.80;84.60;;;;;;5072598;28;20017;-78
2022/03/19 02:54:09;;;;;;;50.85;25.50;;;4.80;84.00;;;;;;5055401;28;20546;-76
2022/03/19 02:56:38;;;;;;;47.47;23.50;;;4.80;83.90;;;;;;5073104;28;20092;-76
2022/03/19 02:59:12;;;;;;;42.55;23.83;;;4.80;83.90;;;;;;5072705;28;20111;-78
2022/03/19 03:01:41;;;;;;;42.72;23.13;;;4.80;83.40;;;;;;5072230;28;20033;-79
2022/03/19 03:04:07;;;;;;;39.30;22.17;;;4.80;83.10;;;;;;5056613;28;20095;-79
2022/03/19 03:06:40;;;;;;;39.20;20.88;;;4.80;83.00;;;;;;5074712;28;20047;-79
2022/03/19 03:09:07;;;;;;;43.97;24.13;;;4.80;82.90;;;;;;5079998;28;20099;-78
2022/03/19 03:11:34;;;;;;;42.65;21.35;;;4.70;83.20;;;;;;5072058;28;20028;-77
2022/03/19 03:14:00;;;;;;;39.40;21.58;;;4.60;83.30;;;;;;5072880;28;20024;-77
2022/03/19 03:16:29;;;;;;;44.88;21.35;;;4.60;82.90;;;;;;5071873;28;20395;-77
2022/03/19 03:18:56;;;;;;;45.35;21.38;;;4.70;83.10;;;;;;5069787;28;20035;-76
2022/03/19 03:21:22;;;;;;;40.63;19.38;;;4.70;83.10;;;;;;5070953;28;20056;-76
2022/03/19 03:23:48;;;;;;;35.25;19.17;;;4.60;82.50;;;;;;5071635;28;20483;-76
2022/03/19 03:26:13;;;;;;;42.25;20.38;;;4.50;82.80;;;;;;5071496;28;20043;-77
2022/03/19 03:28:39;;;;;;;36.13;18.50;;;4.50;83.10;;;;;;5071925;28;20367;-80
2022/03/19 03:31:05;;;;;;;32.15;17.13;;;4.50;82.90;;;;;;5075126;28;20115;-78
2022/03/19 03:33:30;;;;;;;44.08;19.77;;;4.60;83.00;;;;;;5074220;28;20027;-78
2022/03/19 03:35:56;;;;;;;37.47;19.00;;;4.60;83.10;;;;;;5071663;28;20483;-76
2022/03/19 03:38:21;;;;;;;29.77;17.92;;;4.60;83.30;;;;;;5070944;28;20033;-77
2022/03/19 03:40:47;;;;;;;35.42;17.10;;;4.60;83.60;;;;;;5071205;28;20032;-77
2022/03/19 03:43:13;;;;;;;35.22;16.92;;;4.50;82.90;;;;;;5070883;28;20118;-77
2022/03/19 03:45:38;;;;;;;39.75;17.45;;;4.40;82.90;;;;;;5071093;28;20020;-77
2022/03/19 03:48:04;;;;;;;35.00;18.10;;;4.30;83.10;;;;;;5054962;28;20016;-78
2022/03/19 03:50:30;;;;;;;39.28;19.00;;;4.20;83.40;;;;;;5071127;28;20012;-78
2022/03/19 03:52:56;;;;;;;31.38;16.92;;;4.10;84.20;;;;;;5073329;28;20017;-79
2022/03/19 03:55:22;;;;;;;42.15;18.38;;;4.10;84.60;;;;;;5072370;28;20387;-79
2022/03/19 03:57:49;;;;;;;41.35;17.83;;;4.00;84.70;;;;;;5073167;28;20048;-78
2022/03/19 04:00:15;;;;;;;32.03;16.73;;;4.00;85.10;;;;;;5076122;28;20021;-78
2022/03/19 04:02:41;;;;;;;31.13;16.08;;;4.10;84.80;;;;;;5074591;28;20031;-78
2022/03/19 04:05:08;;;;;;;34.63;18.45;;;4.20;84.50;;;;;;5073685;28;20020;-78
2022/03/19 04:07:34;;;;;;;36.65;17.85;;;4.20;84.50;;;;;;5074158;28;20028;-78
2022/03/19 04:09:59;;;;;;;38.92;18.77;;;4.20;84.50;;;;;;5075099;28;20116;-78
2022/03/19 04:12:25;;;;;;;32.13;17.45;;;4.10;84.40;;;;;;5075226;28;20024;-77
2022/03/19 04:14:52;;;;;;;36.83;18.23;;;4.10;84.60;;;;;;5073879;28;20032;-77
2022/03/19 04:17:18;;;;;;;38.45;17.30;;;4.20;84.70;;;;;;5073366;28;20045;-78
2022/03/19 04:19:44;;;;;;;34.10;16.55;;;4.20;84.50;;;;;;5075031;28;20021;-77
2022/03/19 04:22:10;;;;;;;34.42;17.33;;;4.50;83.90;;;;;;5073458;28;20033;-78
2022/03/19 04:24:36;;;;;;;29.85;15.90;;;4.60;83.10;;;;;;5073222;28;20024;-78
2022/03/19 04:27:01;;;;;;;33.92;16.17;;;4.70;82.90;;;;;;5073468;28;20031;-78
2022/03/19 04:29:27;;;;;;;31.80;15.50;;;4.80;82.40;;;;;;5072815;28;20024;-77
2022/03/19 04:31:52;;;;;;;32.30;15.60;;;4.80;81.90;;;;;;5072379;28;20025;-76
2022/03/19 04:34:18;;;;;;;32.40;16.08;;;4.90;81.80;;;;;;5073855;28;20048;-76
2022/03/19 04:36:44;;;;;;;31.27;15.32;;;5.00;81.90;;;;;;5072398;28;20070;-77
2022/03/19 04:39:10;;;;;;;34.67;15.68;;;5.00;81.40;;;;;;5072189;28;20054;-79
2022/03/19 04:41:37;;;;;;;29.75;14.63;;;5.00;80.70;;;;;;5073078;28;20094;-77
2022/03/19 04:44:04;;;;;;;40.33;16.13;;;5.00;80.60;;;;;;5073480;28;20016;-78
2022/03/19 04:46:30;;;;;;;35.88;14.95;;;5.00;80.60;;;;;;5073369;28;20067;-78
2022/03/19 04:48:56;;;;;;;37.05;13.73;;;5.00;81.60;;;;;;5072756;28;20020;-78
2022/03/19 04:51:30;;;;;;;28.75;13.27;;;4.90;81.00;;;;;;5071833;28;20067;-77
2022/03/19 04:53:56;;;;;;;29.00;13.65;;;4.90;80.90;;;;;;5073531;28;20021;-77
2022/03/19 04:56:27;;;;;;;24.30;11.77;;;4.90;81.10;;;;;;5073080;28;20032;-77
2022/03/19 04:58:54;;;;;;;28.25;14.85;;;4.80;80.60;;;;;;5072802;28;20036;-76
2022/03/19 05:01:20;;;;;;;27.95;12.90;;;4.70;81.30;;;;;;5073390;28;20028;-78
2022/03/19 05:03:46;;;;;;;28.35;13.70;;;4.70;81.20;;;;;;5073071;28;20021;-76
2022/03/19 05:06:12;;;;;;;25.92;13.35;;;4.60;81.40;;;;;;5073314;28;20027;-77
2022/03/19 05:08:37;;;;;;;30.13;14.35;;;4.60;81.30;;;;;;5072738;28;20020;-76
2022/03/19 05:11:16;;;;;;;29.70;12.57;;;4.70;81.00;;;;;;5072094;28;20040;-76
2022/03/19 05:13:48;;;;;;;27.20;12.18;;;4.60;80.70;;;;;;5073635;28;20024;-78
2022/03/19 05:16:14;;;;;;;30.13;11.88;;;4.50;80.60;;;;;;5074380;28;20025;-75
2022/03/19 05:18:40;;;;;;;41.53;12.93;;;4.40;81.20;;;;;;5072020;28;20547;-77
2022/03/19 05:21:06;;;;;;;23.85;13.55;;;4.50;81.60;;;;;;5072436;28;20185;-76
2022/03/19 05:23:32;;;;;;;29.17;12.73;;;4.70;81.40;;;;;;5071148;28;20419;-76
2022/03/19 05:25:58;;;;;;;30.88;13.00;;;4.60;80.90;;;;;;5072062;28;20024;-77
2022/03/19 05:28:25;;;;;;;28.52;12.73;;;4.60;81.10;;;;;;5072657;28;20286;-78
2022/03/19 05:30:54;;;;;;;38.45;15.25;;;4.60;81.20;;;;;;5074550;28;20032;-79
2022/03/19 05:34:29;;;;;;;29.75;12.23;;;4.70;81.50;;;;;;5079806;28;20033;-79
2022/03/19 05:36:06;;;;;;;26.05;10.93;;;4.70;80.20;;;;;;5060909;28;20021;-78
2022/03/19 05:38:32;;;;;;;26.40;11.57;;;4.70;80.40;;;;;;5074457;28;20032;-79
2022/03/19 05:40:58;;;;;;;31.73;13.95;;;4.70;80.10;;;;;;5075640;28;20036;-79
2022/03/19 05:43:24;;;;;;;22.90;12.35;;;4.70;80.90;;;;;;5077309;28;20030;-81
2022/03/19 05:45:49;;;;;;;23.52;13.00;;;4.80;80.80;;;;;;5075229;28;20020;-77
2022/03/19 05:48:15;;;;;;;29.20;12.93;;;4.80;80.60;;;;;;5072729;28;20024;-81
2022/03/19 05:50:40;;;;;;;28.63;13.40;;;4.80;80.30;;;;;;5073927;28;20020;-79
2022/03/19 05:53:06;;;;;;;23.70;12.23;;;4.70;80.80;;;;;;5075380;28;20025;-80
2022/03/19 05:55:31;;;;;;;25.73;12.10;;;4.60;81.10;;;;;;5070022;28;20100;-79
2022/03/19 05:57:57;;;;;;;26.83;13.23;;;4.60;81.20;;;;;;5072517;28;20090;-78
2022/03/19 06:00:23;;;;;;;31.33;12.98;;;4.60;81.90;;;;;;5077628;28;20476;-79
2022/03/19 06:02:48;;;;;;;25.70;12.40;;;4.70;81.70;;;;;;5075039;28;20039;-77
2022/03/19 06:05:14;;;;;;;28.38;10.85;;;4.70;81.10;;;;;;5065968;28;20025;-77
2022/03/19 06:07:39;;;;;;;24.17;10.65;;;4.70;80.20;;;;;;5067221;28;20040;-78
2022/03/19 06:10:06;;;;;;;21.80;9.52;;;4.70;80.20;;;;;;5068973;28;20025;-78
2022/03/19 06:12:32;;;;;;;19.20;9.13;;;4.80;80.50;;;;;;5072520;28;20073;-78
2022/03/19 06:14:57;;;;;;;26.60;10.52;;;4.80;79.90;;;;;;5077518;28;20078;-79
2022/03/19 06:17:23;;;;;;;23.83;9.85;;;4.90;79.40;;;;;;5077648;28;20028;-79
2022/03/19 06:19:48;;;;;;;20.98;9.98;;;4.80;79.30;;;;;;5078338;28;20028;-79
2022/03/19 06:22:14;;;;;;;27.02;10.25;;;4.80;80.10;;;;;;5070882;28;20095;-77
2022/03/19 06:24:39;;;;;;;23.27;10.27;;;5.00;80.00;;;;;;5074774;28;20024;-79
2022/03/19 06:27:05;;;;;;;23.10;10.40;;;5.10;79.00;;;;;;5072262;28;20071;-74
2022/03/19 06:29:31;;;;;;;24.60;9.75;;;5.00;78.40;;;;;;5071733;28;20032;-77
2022/03/19 06:31:56;;;;;;;25.60;11.50;;;5.10;78.50;;;;;;5071648;28;20123;-76
2022/03/19 06:34:22;;;;;;;21.83;8.98;;;5.10;78.90;;;;;;5071442;28;20026;-78
2022/03/19 06:39:31;;;;;;;28.10;9.05;;;5.00;79.00;;;;;;5071982;28;20371;-78
2022/03/19 06:41:57;;;;;;;27.58;10.65;;;5.00;78.50;;;;;;5071347;28;20103;-77
2022/03/19 06:44:23;;;;;;;29.25;10.00;;;5.10;78.80;;;;;;5070132;28;20391;-77
2022/03/19 06:46:49;;;;;;;25.15;8.68;;;5.10;79.10;;;;;;5071301;28;20035;-78
2022/03/19 06:49:14;;;;;;;24.38;8.98;;;5.20;78.80;;;;;;5070414;28;20446;-77
2022/03/19 06:51:40;;;;;;;21.30;9.68;;;5.10;78.20;;;;;;5071230;28;20039;-78
2022/03/19 06:54:05;;;;;;;20.88;10.50;;;5.00;78.60;;;;;;5070803;28;20348;-75
2022/03/19 06:56:31;;;;;;;18.73;9.00;;;4.90;79.40;;;;;;5070264;28;20067;-79
2022/03/19 06:58:57;;;;;;;26.00;9.73;;;5.00;79.70;;;;;;5068662;28;20025;-77
2022/03/19 07:01:22;;;;;;;27.42;11.32;;;5.00;79.30;;;;;;5069221;28;20025;-77
2022/03/19 07:03:48;;;;;;;26.67;10.38;;;4.80;79.30;;;;;;5069258;28;20031;-78
2022/03/19 07:06:15;;;;;;;26.45;11.82;;;4.80;79.50;;;;;;5070527;28;20017;-78
2022/03/19 07:08:42;;;;;;;31.35;13.90;;;4.80;79.70;;;;;;5069495;28;20479;-76
2022/03/19 07:11:08;;;;;;;29.13;12.73;;;4.80;79.00;;;;;;5068415;28;20505;-78
2022/03/19 07:13:34;;;;;;;30.80;14.50;;;4.90;79.70;;;;;;5068580;28;20078;-80
2022/03/19 07:15:59;;;;;;;35.97;15.75;;;5.00;80.00;;;;;;5069564;28;20399;-80
2022/03/19 07:18:25;;;;;;;34.60;14.55;;;5.20;79.00;;;;;;5073685;28;20029;-81
2022/03/19 07:20:50;;;;;;;24.33;12.52;;;5.20;79.20;;;;;;5083181;28;20050;-81
2022/03/19 07:23:16;;;;;;;27.52;11.40;;;5.20;78.90;;;;;;5090708;28;20012;-82
2022/03/19 07:25:43;;;;;;;29.02;12.45;;;5.20;78.00;;;;;;5090083;28;20025;-81
2022/03/19 07:28:14;;;;;;;26.05;12.43;;;5.00;78.70;;;;;;5089104;28;20017;-79
2022/03/19 07:30:41;;;;;;;30.58;12.93;;;4.70;79.20;;;;;;5092565;28;20024;-81
2022/03/19 07:33:07;;;;;;;32.80;13.60;;;4.50;80.10;;;;;;5089218;28;20419;-80
2022/03/19 07:35:33;;;;;;;30.33;13.40;;;4.60;80.10;;;;;;5090858;28;20398;-81
2022/03/19 07:37:59;;;;;;;31.98;13.52;;;4.60;80.50;;;;;;5089883;28;20168;-79
2022/03/19 07:43:12;;;;;;;24.73;13.38;;;4.70;80.60;;;;;;5082196;22;20067;-71
2022/03/19 07:45:39;;;;;;;28.38;11.80;;;4.90;79.80;;;;;;5052941;28;20036;-71
2022/03/19 07:48:05;;;;;;;24.55;11.00;;;5.00;79.30;;;;;;5063616;28;20413;-72
2022/03/19 07:50:31;;;;;;;33.85;14.20;;;4.90;79.40;;;;;;5057138;28;20017;-72
2022/03/19 07:52:57;;;;;;;30.52;11.88;;;5.00;80.20;;;;;;5069370;28;20021;-71
2022/03/19 07:55:24;;;;;;;30.52;11.65;;;5.00;78.60;;;;;;5061305;28;20020;-71
2022/03/19 07:57:50;;;;;;;28.48;12.25;;;5.00;79.40;;;;;;5061618;28;20392;-72
2022/03/19 08:00:16;;;;;;;23.98;11.52;;;5.10;78.70;;;;;;5069532;28;20025;-72
2022/03/19 08:02:42;;;;;;;27.55;12.20;;;5.00;78.80;;;;;;5057255;28;20025;-71
2022/03/19 08:05:09;;;;;;;30.80;11.55;;;5.10;79.10;;;;;;5067801;28;20357;-72
2022/03/19 08:07:34;;;;;;;26.85;11.93;;;5.30;77.70;;;;;;5061158;28;20537;-72
2022/03/19 08:10:01;;;;;;;30.85;10.52;;;5.60;78.30;;;;;;5060538;28;20021;-72
2022/03/19 08:12:27;;;;;;;25.45;11.57;;;6.40;76.80;;;;;;5068816;28;20063;-71
2022/03/19 08:14:53;;;;;;;26.45;12.95;;;7.10;74.20;;;;;;5057951;28;20086;-71
2022/03/19 08:17:18;;;;;;;29.30;12.80;;;7.40;71.60;;;;;;5065640;28;20475;-72
2022/03/19 08:19:45;;;;;;;27.10;12.35;;;7.40;69.90;;;;;;5064755;28;20033;-71
2022/03/19 08:22:11;;;;;;;29.38;12.75;;;6.80;71.20;;;;;;5057138;28;20024;-72
2022/03/19 08:24:37;;;;;;;32.53;14.13;;;6.60;73.10;;;;;;5069717;28;20024;-71
2022/03/19 08:27:03;;;;;;;34.85;14.68;;;6.70;73.10;;;;;;5058093;28;20009;-72
2022/03/19 08:29:29;;;;;;;25.75;14.10;;;6.80;71.20;;;;;;5061461;28;20036;-71
2022/03/19 08:31:55;;;;;;;30.42;13.95;;;6.20;72.80;;;;;;5061395;28;20467;-72
2022/03/19 08:34:22;;;;;;;31.42;15.18;;;5.80;74.80;;;;;;5070412;28;20086;-71
2022/03/19 08:36:48;;;;;;;28.42;13.75;;;5.40;76.00;;;;;;5057261;28;20096;-71
2022/03/19 08:41:58;;;;;;;34.40;16.05;;;5.40;76.30;;;;;;5062801;28;20161;-71
2022/03/19 08:44:24;;;;;;;35.47;15.48;;;5.20;77.20;;;;;;5053242;28;20514;-71
2022/03/19 08:46:50;;;;;;;34.45;15.75;;;5.20;77.40;;;;;;5039962;28;20380;-71
2022/03/19 08:49:16;;;;;;;34.60;15.30;;;5.40;77.30;;;;;;5069963;28;20035;-73
2022/03/19 08:51:41;;;;;;;30.10;15.10;;;5.60;76.10;;;;;;5063108;28;20033;-74
2022/03/19 08:54:11;;;;;;;37.70;15.02;;;5.70;75.90;;;;;;5067277;28;20108;-74
2022/03/19 08:56:38;;;;;;;31.30;15.85;;;6.00;75.80;;;;;;5055900;28;20396;-74
2022/03/19 08:59:04;;;;;;;30.95;14.55;;;6.40;73.80;;;;;;5065045;28;20116;-74
2022/03/19 09:01:30;;;;;;;34.28;16.15;;;6.40;73.50;;;;;;5060732;28;20033;-75
2022/03/19 09:03:56;;;;;;;32.70;15.95;;;6.50;72.80;;;;;;5057852;28;20061;-75
2022/03/19 09:06:21;;;;;;;34.42;15.98;;;6.40;73.00;;;;;;5066080;28;20094;-74
2022/03/19 09:08:49;;;;;;;33.20;16.35;;;6.10;74.10;;;;;;5054035;28;20095;-73
2022/03/19 09:11:18;;;;;;;30.55;16.38;;;6.00;74.60;;;;;;5063302;28;20048;-73
2022/03/19 09:13:44;;;;;;;41.85;17.88;;;5.70;74.80;;;;;;5063085;28;20115;-73
2022/03/19 09:16:10;;;;;;;37.22;17.48;;;5.50;75.50;;;;;;5058100;28;20033;-71
2022/03/19 09:18:35;;;;;;;38.75;17.05;;;5.40;76.10;;;;;;5070577;28;20039;-73
2022/03/19 09:21:01;;;;;;;34.90;17.95;;;5.40;76.20;;;;;;5068056;28;20598;-73
2022/03/19 09:23:27;;;;;;;31.08;16.90;;;5.10;76.70;;;;;;5061605;28;20039;-73
2022/03/19 09:25:53;;;;;;;36.08;17.55;;;5.00;77.40;;;;;;5060471;28;20476;-71
2022/03/19 09:28:19;;;;;;;38.75;17.48;;;5.00;77.70;;;;;;5067798;28;20016;-73
2022/03/19 09:30:45;;;;;;;36.30;17.38;;;5.10;77.90;;;;;;5056223;28;20539;-75
2022/03/19 09:33:11;;;;;;;33.67;17.48;;;5.10;77.80;;;;;;5066381;28;20025;-75
2022/03/19 09:35:36;;;;;;;33.35;17.60;;;5.00;78.60;;;;;;5062607;28;20365;-73
2022/03/19 09:38:02;;;;;;;33.38;18.63;;;5.00;79.10;;;;;;5058273;28;20090;-75
2022/03/19 09:40:28;;;;;;;32.65;16.35;;;4.80;80.50;;;;;;5069027;28;20023;-74
2022/03/19 09:42:56;;;;;;;38.55;17.05;;;4.60;81.30;;;;;;5054855;28;20025;-72
2022/03/19 09:45:23;;;;;;;35.67;16.83;;;4.50;82.30;;;;;;5064354;28;20020;-73
2022/03/19 09:47:50;;;;;;;25.90;15.70;;;4.40;82.80;;;;;;5063691;28;20438;-72
2022/03/19 09:50:16;;;;;;;45.05;23.33;;;4.40;83.40;;;;;;5056924;28;20036;-72
2022/03/19 09:52:43;;;;;;;28.83;16.30;;;4.50;85.30;;;;;;5068475;28;20111;-72
2022/03/19 09:55:14;;;;;;;24.48;14.45;;;4.50;85.10;;;;;;5058307;28;20107;-72
2022/03/19 09:57:40;;;;;;;26.80;14.02;;;4.50;84.50;;;;;;5058732;28;20120;-71
2022/03/19 10:00:07;;;;;;;27.73;13.93;;;4.50;84.30;;;;;;5065786;28;20488;-71
2022/03/19 10:02:32;;;;;;;26.85;13.82;;;4.50;84.80;;;;;;5055718;28;20037;-75
2022/03/19 10:08:35;;;;;;;25.67;14.02;;;4.60;84.40;;;;;;5068058;28;20048;-76
2022/03/19 10:10:33;;;;;;;20.95;11.18;;;5.10;85.00;;;;;;5055975;28;20028;-75
2022/03/19 10:12:59;;;;;;;21.73;10.77;;;5.40;83.90;;;;;;5067027;28;20013;-74
2022/03/19 10:15:27;;;;;;;18.52;11.10;;;5.60;83.00;;;;;;5060799;28;20458;-75
2022/03/19 10:17:59;;;;;;;13.73;8.55;;;5.50;81.80;;;;;;5057843;28;20020;-76
2022/03/19 10:20:25;;;;;;;13.20;8.77;;;5.50;81.20;;;;;;5067054;28;20025;-74
2022/03/19 10:22:51;;;;;;;18.77;9.57;;;5.50;80.90;;;;;;5055878;28;20147;-74
2022/03/19 10:25:17;;;;;;;10.30;7.25;;;5.60;79.30;;;;;;5063607;28;20044;-73
2022/03/19 10:27:44;;;;;;;13.60;7.97;;;5.50;78.70;;;;;;5063066;28;20040;-74
2022/03/19 10:30:16;;;;;;;19.63;8.65;;;5.70;78.40;;;;;;5057148;28;20100;-75
2022/03/19 10:32:46;;;;;;;15.20;7.93;;;6.20;78.10;;;;;;5055982;28;20029;-75
2022/03/19 10:35:31;;;;;;;16.70;8.75;;;6.40;75.30;;;;;;5065159;28;20397;-74
2022/03/19 10:37:58;;;;;;;12.90;8.20;;;6.30;75.50;;;;;;5061755;28;20075;-75
2022/03/19 10:40:42;;;;;;;18.80;8.73;;;6.20;75.50;;;;;;5053958;28;20424;-74
2022/03/19 10:43:09;;;;;;;17.77;9.60;;;6.10;75.30;;;;;;5041102;28;20029;-74
2022/03/19 10:45:43;;;;;;;20.98;11.50;;;6.10;73.80;;;;;;5059563;28;20056;-72
2022/03/19 10:48:11;;;;;;;22.20;11.43;;;6.00;72.90;;;;;;5066093;28;20017;-75
2022/03/19 10:50:39;;;;;;;21.67;11.27;;;6.00;72.90;;;;;;5055496;28;20088;-75
2022/03/19 10:53:06;;;;;;;18.05;10.52;;;6.20;72.50;;;;;;5066106;28;20021;-74
2022/03/19 10:55:31;;;;;;;19.70;11.13;;;6.20;72.60;;;;;;5061120;28;20091;-76
2022/03/19 10:57:57;;;;;;;19.85;11.13;;;6.30;72.90;;;;;;5069621;28;20139;-75
2022/03/19 11:00:22;;;;;;;22.23;11.38;;;6.50;71.00;;;;;;5070064;28;20040;-73
2022/03/19 11:02:49;;;;;;;20.83;11.65;;;6.90;70.70;;;;;;5069806;28;20020;-73
2022/03/19 11:05:19;;;;;;;27.35;11.50;;;7.20;69.10;;;;;;5070100;28;20029;-73
2022/03/19 11:07:45;;;;;;;22.50;11.20;;;7.20;70.70;;;;;;5070193;28;20048;-74
2022/03/19 11:10:12;;;;;;;23.63;11.52;;;7.50;70.50;;;;;;5075628;28;20021;-73
2022/03/19 11:12:42;;;;;;;24.15;13.45;;;7.60;69.80;;;;;;5076108;28;20052;-74
2022/03/19 11:15:13;;;;;;;18.23;12.10;;;7.60;65.30;;;;;;5076045;28;20024;-73
2022/03/19 11:17:44;;;;;;;21.50;10.98;;;7.60;60.10;;;;;;5074064;28;20024;-75
2022/03/19 11:20:12;;;;;;;21.67;11.38;;;7.70;61.80;;;;;;5075978;28;20060;-74
2022/03/19 11:22:52;;;;;;;26.42;13.82;;;7.90;61.40;;;;;;5075749;28;20457;-74
2022/03/19 11:25:25;;;;;;;21.08;10.90;;;8.00;61.10;;;;;;5075553;28;20032;-74
2022/03/19 11:27:55;;;;;;;27.38;12.98;;;8.30;56.80;;;;;;5075123;28;20103;-75
2022/03/19 11:30:24;;;;;;;20.83;11.27;;;8.20;58.50;;;;;;5075835;28;20028;-76
2022/03/19 11:33:05;;;;;;;19.83;11.05;;;7.70;53.60;;;;;;5075552;28;20025;-73
2022/03/19 11:35:32;;;;;;;19.02;10.95;;;7.50;56.00;;;;;;5075559;28;20056;-74
2022/03/19 11:38:00;;;;;;;19.85;12.05;;;7.30;52.90;;;;;;5067122;28;20476;-74
2022/03/19 11:40:33;;;;;;;21.52;11.50;;;7.00;54.40;;;;;;5054991;28;20476;-74
2022/03/19 11:43:04;;;;;;;23.25;12.48;;;7.10;55.70;;;;;;5055357;28;20036;-74
2022/03/19 11:45:53;;;;;;;18.67;11.68;;;7.00;57.10;;;;;;5055531;28;20021;-74
2022/03/19 11:48:34;;;;;;;20.95;11.75;;;7.00;54.00;;;;;;5053960;28;20477;-75
2022/03/19 11:51:25;;;;;;;20.60;11.82;;;7.30;53.50;;;;;;5055210;28;20029;-74
2022/03/19 11:53:59;;;;;;;17.08;11.93;;;7.50;51.70;;;;;;5054963;28;20028;-75
2022/03/19 11:56:26;;;;;;;24.08;13.75;;;7.50;51.10;;;;;;5054792;28;20025;-74
2022/03/19 11:58:53;;;;;;;20.52;12.73;;;7.30;50.30;;;;;;5052679;28;20032;-75
2022/03/19 12:01:58;;;;;;;24.75;14.57;;;7.20;52.30;;;;;;5054703;28;20024;-73
2022/03/19 12:04:24;;;;;;;24.50;13.63;;;7.20;52.30;;;;;;5054482;28;20013;-75
2022/03/19 12:06:54;;;;;;;20.17;13.20;;;7.30;52.40;;;;;;5053429;28;20028;-74
2022/03/19 12:09:52;;;;;;;24.40;13.05;;;7.50;52.80;;;;;;5053297;28;20024;-73
2022/03/19 12:12:18;;;;;;;26.52;13.05;;;7.60;52.10;;;;;;5054418;28;20025;-73
2022/03/19 12:14:44;;;;;;;23.45;14.00;;;7.40;49.70;;;;;;5053628;28;20025;-73
2022/03/19 12:17:21;;;;;;;22.40;13.75;;;7.40;50.30;;;;;;5053399;28;20468;-74
2022/03/19 12:19:55;;;;;;;23.02;13.63;;;7.50;49.90;;;;;;5053723;28;20203;-74
2022/03/19 12:22:33;;;;;;;25.45;13.48;;;7.60;50.70;;;;;;5052609;28;20028;-74
2022/03/19 12:25:17;;;;;;;24.67;13.32;;;7.70;50.20;;;;;;5054195;28;20507;-73
2022/03/19 12:27:57;;;;;;;28.55;13.68;;;7.70;49.70;;;;;;5052893;28;20067;-73
2022/03/19 12:30:25;;;;;;;20.05;12.65;;;7.70;48.60;;;;;;5053721;28;20108;-74
2022/03/19 12:32:56;;;;;;;22.27;13.40;;;7.80;48.40;;;;;;5052149;28;20029;-74
2022/03/19 12:35:26;;;;;;;24.92;14.35;;;7.90;47.70;;;;;;5053872;28;20029;-75
2022/03/19 12:37:54;;;;;;;21.17;13.25;;;7.90;47.30;;;;;;5051786;28;20447;-73
2022/03/19 12:40:24;;;;;;;24.00;14.60;;;8.00;47.80;;;;;;5053692;28;20480;-74
2022/03/19 12:42:51;;;;;;;21.13;14.55;;;8.00;47.50;;;;;;5053554;28;20127;-74
2022/03/19 12:45:17;;;;;;;23.92;13.32;;;8.10;48.00;;;;;;5053468;28;20020;-74
2022/03/19 12:47:43;;;;;;;24.50;14.32;;;8.00;48.10;;;;;;5052687;28;20025;-75
2022/03/19 12:50:09;;;;;;;25.40;13.50;;;8.10;47.80;;;;;;5053523;28;20024;-74
2022/03/19 12:52:46;;;;;;;25.00;13.65;;;8.00;44.50;;;;;;5052623;28;20029;-73
2022/03/19 12:55:20;;;;;;;25.83;12.95;;;8.00;45.60;;;;;;5050872;28;20107;-73